Rivne, Ukraine
Current Conditions -  °F | °C
As of 6:00 PM on Friday 31 Oct 2014 (Local Time) from UKLR Reporting Station
Overcast Overcast  
Wind Chill: 34°   Ceiling: 2300
Heat Index: 39°   Visibility: 6mi
Dew Point: 36°   Wind: 7mph
Humidity: 87%   Direction: 320°NW
Pressure: 30.27"   Gusts: NA
Location:  50.62°N, 26.25°E
Report Text: UKLR 311500Z 32003MPS 290V350 9999 OVC023 04/02 Q1025 NOSIG
Loading
Personal Weather Stations






























Interactive Weather Map
Tropical Storm Tracking
New forecast layout! Learn more

10-Day Weather Forecast

Advertisements
Track Severe Weather on mobile